Time;durP1;ratioP1;P1;durP2;ratioP2;P2;SDS_P1;SDS_P2;PMS_P1;PMS_P2;Temp;Humidity;BMP_temperature;BMP_pressure;BME280_temperature;BME280_humidity;BME280_pressure;Samples;Min_cycle;Max_cycle;Signal;HPM_P1;HPM_P2
2022/03/31 00:01:49;;;;;;;15.60;7.70;;;;;9.64;96188.20;;;;111102;1247;41634;-62
2022/03/31 00:04:19;;;;;;;16.10;7.20;;;;;9.60;96186.20;;;;111092;1249;41123;-63
2022/03/31 00:06:48;;;;;;;16.20;7.40;;;;;9.60;96183.20;;;;111162;1246;41138;-62
2022/03/31 00:09:18;;;;;;;13.80;6.70;;;;;9.60;96177.80;;;;111057;1248;41929;-64
2022/03/31 00:11:48;;;;;;;15.40;6.40;;;;;9.60;96172.20;;;;111103;1248;41155;-64
2022/03/31 00:14:18;;;;;;;14.90;6.80;;;;;9.60;96169.40;;;;111069;1247;41717;-65
2022/03/31 00:16:49;;;;;;;13.70;6.30;;;;;9.58;96165.00;;;;111051;1249;41124;-64
2022/03/31 00:19:19;;;;;;;11.60;5.00;;;;;9.60;96168.00;;;;110787;1249;41258;-64
2022/03/31 00:21:49;;;;;;;16.40;5.90;;;;;9.60;96161.40;;;;111079;1248;41970;-62
2022/03/31 00:24:19;;;;;;;13.60;6.20;;;;;9.60;96152.60;;;;111093;1246;41151;-63
2022/03/31 00:26:50;;;;;;;14.40;7.10;;;;;9.60;96142.40;;;;111138;1247;42424;-63
2022/03/31 00:29:22;;;;;;;17.40;6.50;;;;;9.60;96140.80;;;;111033;1248;41705;-63
2022/03/31 00:31:52;;;;;;;13.90;6.60;;;;;9.60;96139.20;;;;110919;1248;41126;-63
2022/03/31 00:34:22;;;;;;;16.60;6.90;;;;;9.60;96134.80;;;;111150;1248;41266;-63
2022/03/31 00:36:53;;;;;;;14.10;6.30;;;;;9.60;96134.60;;;;111151;1247;41394;-64
2022/03/31 00:39:29;;;;;;;12.70;6.10;;;;;9.60;96126.60;;;;111096;1247;41831;-62
2022/03/31 00:42:02;;;;;;;15.10;6.10;;;;;9.60;96120.80;;;;111118;1247;41139;-64
2022/03/31 00:44:32;;;;;;;15.40;6.40;;;;;9.50;96122.20;;;;111110;1247;41118;-64
2022/03/31 00:47:03;;;;;;;16.80;6.80;;;;;9.50;96115.20;;;;111001;1248;41726;-64
2022/03/31 00:49:34;;;;;;;16.60;7.70;;;;;9.50;96108.20;;;;110997;1248;41266;-64
2022/03/31 00:52:04;;;;;;;;;;;;;9.50;96105.60;;;;111130;1247;41123;-64
2022/03/31 00:54:35;;;;;;;16.70;6.90;;;;;9.50;96107.60;;;;111133;1247;41761;-65
2022/03/31 00:57:07;;;;;;;16.40;6.80;;;;;9.50;96111.00;;;;111100;1247;41251;-64
2022/03/31 00:59:37;;;;;;;13.70;6.10;;;;;9.50;96105.80;;;;111144;1248;41349;-63
2022/03/31 01:02:08;;;;;;;15.20;7.40;;;;;9.50;96105.80;;;;111046;1246;41293;-63
2022/03/31 01:04:39;;;;;;;16.80;7.80;;;;;9.50;96103.00;;;;111058;1248;41739;-63
2022/03/31 01:07:11;;;;;;;14.60;6.20;;;;;9.40;96105.20;;;;111114;1247;41147;-62
2022/03/31 01:09:41;;;;;;;14.80;6.00;;;;;9.40;96108.40;;;;111076;1247;41250;-66
2022/03/31 01:12:11;;;;;;;;;;;;;9.40;96111.80;;;;111126;1247;41133;-65
2022/03/31 01:14:41;;;;;;;15.80;6.10;;;;;9.40;96110.80;;;;111085;1248;41264;-65
2022/03/31 01:17:11;;;;;;;13.20;6.30;;;;;9.30;96110.60;;;;110891;1248;41585;-65
2022/03/31 01:19:41;;;;;;;;;;;;;9.30;96104.00;;;;110924;1250;41955;-64
2022/03/31 01:22:12;;;;;;;13.70;5.60;;;;;9.20;96104.40;;;;111055;1249;41254;-65
2022/03/31 01:24:41;;;;;;;12.00;5.40;;;;;9.20;96098.00;;;;111071;1248;41142;-64
2022/03/31 01:27:12;;;;;;;13.40;5.80;;;;;9.20;96093.60;;;;111073;1248;41939;-64
2022/03/31 01:29:43;;;;;;;12.50;5.60;;;;;9.20;96091.80;;;;111060;1248;41393;-64
2022/03/31 01:32:13;;;;;;;12.00;5.00;;;;;9.20;96087.20;;;;111102;1247;41603;-63
2022/03/31 01:34:45;;;;;;;17.40;6.00;;;;;9.20;96083.20;;;;111062;1247;41709;-62
2022/03/31 01:37:15;;;;;;;13.70;5.20;;;;;9.20;96076.00;;;;111043;1250;41166;-64
2022/03/31 01:39:45;;;;;;;15.40;6.50;;;;;9.20;96075.00;;;;111072;1248;41962;-64
2022/03/31 01:42:15;;;;;;;16.80;6.10;;;;;9.20;96075.60;;;;110706;1250;41131;-63
2022/03/31 01:44:45;;;;;;;16.50;6.00;;;;;9.20;96075.20;;;;110798;1249;41212;-63
2022/03/31 01:47:17;;;;;;;14.50;5.50;;;;;9.20;96072.60;;;;110980;1249;41149;-65
2022/03/31 01:49:47;;;;;;;13.00;5.30;;;;;9.20;96074.60;;;;110703;1250;41147;-64
2022/03/31 01:52:17;;;;;;;13.40;5.60;;;;;9.20;96076.80;;;;111040;1247;42309;-64
2022/03/31 01:54:48;;;;;;;;;;;;;9.20;96081.80;;;;110788;1251;41416;-62
2022/03/31 01:57:18;;;;;;;11.00;5.00;;;;;9.16;96079.20;;;;111146;1247;41137;-64
2022/03/31 01:59:48;;;;;;;11.90;5.20;;;;;9.10;96084.00;;;;110768;1251;41442;-66
2022/03/31 02:02:19;;;;;;;16.30;7.00;;;;;9.10;96082.20;;;;110906;1250;41191;-65
2022/03/31 02:04:49;;;;;;;14.50;6.40;;;;;9.10;96076.60;;;;111099;1248;42064;-64
2022/03/31 02:07:20;;;;;;;13.40;5.70;;;;;9.00;96070.60;;;;110862;1250;41140;-65
2022/03/31 02:09:50;;;;;;;19.40;7.90;;;;;9.00;96072.20;;;;110853;1250;41137;-63
2022/03/31 02:12:20;;;;;;;16.20;6.80;;;;;8.90;96070.00;;;;110888;1250;41705;-63
2022/03/31 02:14:51;;;;;;;13.10;6.50;;;;;8.84;96074.40;;;;111009;1250;41740;-63
2022/03/31 02:17:21;;;;;;;12.70;6.10;;;;;8.80;96071.60;;;;111042;1249;41480;-63
2022/03/31 02:19:50;;;;;;;11.70;6.10;;;;;8.78;96075.40;;;;111130;1248;41257;-63
2022/03/31 02:22:22;;;;;;;13.30;5.80;;;;;8.72;96076.20;;;;111106;1247;41155;-63
2022/03/31 02:24:52;;;;;;;12.00;5.80;;;;;8.70;96067.00;;;;110740;1248;41263;-63
2022/03/31 02:27:22;;;;;;;16.80;7.40;;;;;8.70;96068.80;;;;110689;1250;42268;-63
2022/03/31 02:29:52;;;;;;;14.60;6.50;;;;;8.70;96065.60;;;;110952;1248;41138;-62
2022/03/31 02:32:22;;;;;;;14.60;6.80;;;;;8.70;96075.80;;;;111054;1247;41128;-64
2022/03/31 02:34:52;;;;;;;16.60;6.40;;;;;8.70;96072.80;;;;111038;1249;41151;-64
2022/03/31 02:37:22;;;;;;;14.70;6.40;;;;;8.70;96078.20;;;;111062;1248;41610;-63
2022/03/31 02:39:52;;;;;;;16.90;7.20;;;;;8.68;96070.40;;;;111072;1247;41438;-64
2022/03/31 02:42:22;;;;;;;20.60;7.90;;;;;8.60;96067.20;;;;110991;1250;42445;-62
2022/03/31 02:44:52;;;;;;;15.90;6.90;;;;;8.60;96068.40;;;;110793;1250;41142;-60
2022/03/31 02:47:22;;;;;;;16.60;7.70;;;;;8.60;96064.80;;;;110823;1248;42260;-63
2022/03/31 02:49:52;;;;;;;16.90;8.20;;;;;8.60;96062.80;;;;111123;1246;41501;-62
2022/03/31 02:52:22;;;;;;;18.10;7.90;;;;;8.60;96054.80;;;;111024;1250;41291;-63
2022/03/31 02:57:42;;;;;;;17.30;8.30;;;;;8.50;96044.80;;;;110726;1249;41156;-63
2022/03/31 03:00:13;;;;;;;17.00;7.70;;;;;8.50;96044.80;;;;110863;1250;41136;-63
2022/03/31 03:02:43;;;;;;;15.10;6.80;;;;;8.48;96041.40;;;;111095;1247;41262;-63
2022/03/31 03:05:13;;;;;;;15.80;6.20;;;;;8.40;96042.40;;;;111005;1248;41592;-64
2022/03/31 03:07:46;;;;;;;14.80;6.40;;;;;8.40;96040.40;;;;110833;1250;41181;-62
2022/03/31 03:10:16;;;;;;;11.20;5.90;;;;;8.40;96035.40;;;;111033;1249;41603;-63
2022/03/31 03:12:47;;;;;;;14.10;5.70;;;;;8.40;96033.80;;;;111006;1248;41192;-64
2022/03/31 03:15:17;;;;;;;14.70;5.60;;;;;8.40;96046.80;;;;110940;1250;41699;-64
2022/03/31 03:17:47;;;;;;;14.00;6.10;;;;;8.40;96040.40;;;;110735;1250;41861;-63
2022/03/31 03:20:18;;;;;;;21.90;6.80;;;;;8.40;96034.80;;;;110682;1249;41442;-64
2022/03/31 03:22:50;;;;;;;12.60;5.80;;;;;8.40;96038.40;;;;111048;1249;41158;-64
2022/03/31 03:25:23;;;;;;;14.50;5.40;;;;;8.40;96032.60;;;;111061;1247;41145;-64
2022/03/31 03:27:52;;;;;;;13.00;5.90;;;;;8.40;96039.20;;;;110643;1250;41158;-63
2022/03/31 03:30:24;;;;;;;12.80;5.60;;;;;8.40;96039.20;;;;110786;1249;41633;-63
2022/03/31 03:32:54;;;;;;;14.80;5.20;;;;;8.40;96034.80;;;;110983;1248;41812;-62
2022/03/31 03:35:23;;;;;;;12.10;5.50;;;;;8.50;96031.80;;;;110727;1250;41222;-64
2022/03/31 03:37:55;;;;;;;13.80;5.90;;;;;8.50;96026.60;;;;110797;1250;42352;-63
2022/03/31 03:40:25;;;;;;;12.20;5.00;;;;;8.50;96020.20;;;;111088;1249;41136;-64
2022/03/31 03:42:56;;;;;;;13.40;5.60;;;;;8.52;96019.80;;;;110803;1248;41187;-63
2022/03/31 03:45:28;;;;;;;15.50;5.70;;;;;8.54;96014.60;;;;110998;1250;41170;-65
2022/03/31 03:48:01;;;;;;;15.50;5.90;;;;;8.52;96003.00;;;;110786;1249;41693;-63
2022/03/31 03:50:31;;;;;;;14.30;5.50;;;;;8.50;96007.20;;;;111152;1247;41274;-62
2022/03/31 03:53:04;;;;;;;17.00;6.20;;;;;8.50;96011.60;;;;111089;1248;41679;-63
2022/03/31 03:55:35;;;;;;;14.70;7.00;;;;;8.50;96013.60;;;;110830;1248;41465;-62
2022/03/31 03:58:05;;;;;;;;;;;;;8.40;96010.80;;;;111114;1247;41651;-64
2022/03/31 04:00:35;;;;;;;14.60;6.20;;;;;8.30;96007.20;;;;111082;1250;41162;-64
2022/03/31 04:03:05;;;;;;;15.60;6.60;;;;;8.30;96004.40;;;;111093;1248;41461;-64
2022/03/31 04:05:34;;;;;;;13.90;6.20;;;;;8.30;96005.00;;;;111078;1247;41579;-64
2022/03/31 04:08:05;;;;;;;13.80;6.60;;;;;8.30;96002.80;;;;111097;1248;41732;-63
2022/03/31 04:10:35;;;;;;;13.10;5.80;;;;;8.24;95995.00;;;;111106;1248;41548;-63
2022/03/31 04:13:04;;;;;;;14.00;6.20;;;;;8.20;95999.20;;;;110828;1249;41152;-63
2022/03/31 04:15:34;;;;;;;17.20;6.40;;;;;8.20;95996.40;;;;111013;1248;41122;-62
2022/03/31 04:18:05;;;;;;;12.60;5.90;;;;;8.18;95996.20;;;;111039;1248;41260;-63
2022/03/31 04:20:35;;;;;;;14.70;5.60;;;;;8.10;95992.20;;;;111026;1248;42125;-62
2022/03/31 04:23:05;;;;;;;13.30;5.90;;;;;8.12;95989.60;;;;110805;1249;42184;-63
2022/03/31 04:25:35;;;;;;;15.40;5.40;;;;;8.16;95991.00;;;;111139;1248;41132;-64
2022/03/31 04:28:07;;;;;;;13.00;5.30;;;;;8.20;95991.20;;;;111087;1247;41133;-64
2022/03/31 04:30:39;;;;;;;15.40;6.00;;;;;8.20;95994.40;;;;111125;1248;41151;-63
2022/03/31 04:33:12;;;;;;;11.30;4.80;;;;;8.20;95989.00;;;;111156;1249;42359;-62
2022/03/31 04:35:44;;;;;;;13.10;5.30;;;;;8.30;95985.60;;;;111171;1247;41239;-62
2022/03/31 04:38:14;;;;;;;13.00;4.80;;;;;8.30;95983.20;;;;111148;1248;41678;-62
2022/03/31 04:40:45;;;;;;;17.10;6.60;;;;;8.40;95982.20;;;;111138;1248;41261;-63
2022/03/31 04:43:16;;;;;;;21.20;8.30;;;;;8.50;95984.00;;;;111081;1250;41855;-63
2022/03/31 04:45:48;;;;;;;17.00;8.40;;;;;8.50;95990.00;;;;111052;1249;41635;-63
2022/03/31 04:48:20;;;;;;;19.70;7.10;;;;;8.50;96001.20;;;;110881;1250;41896;-63
2022/03/31 04:50:50;;;;;;;16.20;6.70;;;;;8.50;95996.20;;;;111148;1247;41158;-63
2022/03/31 04:53:20;;;;;;;14.70;6.60;;;;;8.50;95996.40;;;;110848;1250;41176;-62
2022/03/31 04:55:51;;;;;;;14.90;6.50;;;;;8.60;95994.60;;;;111118;1248;41431;-62
2022/03/31 04:58:26;;;;;;;23.10;6.30;;;;;8.60;95997.40;;;;111116;1248;41259;-63
2022/03/31 05:00:57;;;;;;;14.10;6.10;;;;;8.62;95990.00;;;;111114;1247;41138;-64
2022/03/31 05:03:26;;;;;;;14.50;6.30;;;;;8.70;95992.80;;;;111054;1249;42021;-64
2022/03/31 05:05:55;;;;;;;16.20;6.50;;;;;8.70;95995.40;;;;111027;1249;41141;-64
2022/03/31 05:08:26;;;;;;;17.30;7.00;;;;;8.80;95994.20;;;;110922;1249;41629;-63
2022/03/31 05:10:55;;;;;;;14.30;6.90;;;;;8.80;95994.20;;;;111142;1248;42063;-63
2022/03/31 05:13:24;;;;;;;18.00;7.00;;;;;8.90;95992.60;;;;111091;1246;41266;-63
2022/03/31 05:15:53;;;;;;;15.90;7.20;;;;;8.94;95995.20;;;;111131;1248;41159;-63
2022/03/31 05:18:23;;;;;;;18.20;7.40;;;;;8.96;95997.80;;;;111065;1248;41669;-63
2022/03/31 05:20:52;;;;;;;15.70;6.30;;;;;9.00;95998.20;;;;110725;1248;41183;-63
2022/03/31 05:23:22;;;;;;;15.10;7.10;;;;;9.00;95999.40;;;;111072;1249;41686;-63
2022/03/31 05:25:51;;;;;;;17.50;7.60;;;;;9.04;95996.20;;;;111079;1247;41262;-63
2022/03/31 05:28:21;;;;;;;15.60;7.40;;;;;9.10;95995.80;;;;111016;1250;41146;-63
2022/03/31 05:30:50;;;;;;;22.60;10.10;;;;;9.16;95995.40;;;;111086;1247;41724;-63
2022/03/31 05:33:19;;;;;;;23.10;10.10;;;;;9.10;96002.20;;;;110836;1251;41287;-63
2022/03/31 05:35:49;;;;;;;24.10;10.70;;;;;9.08;96002.40;;;;111146;1247;41156;-63
2022/03/31 05:38:18;;;;;;;27.40;11.70;;;;;9.00;96007.20;;;;111017;1248;41715;-63
2022/03/31 05:40:48;;;;;;;23.30;10.10;;;;;9.00;96008.80;;;;110958;1248;41865;-63
2022/03/31 05:43:17;;;;;;;23.20;10.50;;;;;9.00;96008.60;;;;110757;1250;41156;-63
2022/03/31 05:45:46;;;;;;;22.00;9.90;;;;;9.00;96006.40;;;;110973;1248;41614;-64
2022/03/31 05:48:16;;;;;;;20.50;10.70;;;;;9.00;96005.80;;;;111085;1247;41184;-63
2022/03/31 05:50:47;;;;;;;23.90;10.30;;;;;9.10;96004.00;;;;111128;1248;41152;-64
2022/03/31 05:53:16;;;;;;;30.30;10.80;;;;;9.10;96008.40;;;;111031;1247;41129;-63
2022/03/31 05:55:45;;;;;;;22.00;8.90;;;;;9.10;96006.60;;;;111037;1248;41254;-63
2022/03/31 05:58:14;;;;;;;17.70;7.80;;;;;9.16;96008.60;;;;111089;1248;41147;-66
2022/03/31 06:00:44;;;;;;;19.30;8.00;;;;;9.20;96018.80;;;;111065;1249;41261;-65
2022/03/31 06:03:15;;;;;;;17.80;8.70;;;;;9.20;96019.80;;;;110852;1248;41151;-61
2022/03/31 06:05:44;;;;;;;;;;;;;9.20;96023.00;;;;111122;1247;41286;-65
2022/03/31 06:08:14;;;;;;;32.60;8.90;;;;;9.30;96018.20;;;;111114;1247;41242;-67
2022/03/31 06:10:44;;;;;;;15.80;7.20;;;;;9.40;96018.20;;;;111175;1247;41597;-64
2022/03/31 06:13:14;;;;;;;18.30;8.20;;;;;9.50;96019.60;;;;111094;1248;42389;-66
2022/03/31 06:15:43;;;;;;;17.60;7.60;;;;;9.60;96009.40;;;;111124;1248;41142;-65
2022/03/31 06:18:12;;;;;;;20.30;7.70;;;;;9.70;96010.20;;;;110916;1249;41430;-65
2022/03/31 06:20:41;;;;;;;14.90;6.80;;;;;9.88;96010.00;;;;111089;1249;41913;-65
2022/03/31 06:23:11;;;;;;;16.30;7.70;;;;;10.00;96008.80;;;;111105;1248;41933;-62
2022/03/31 06:25:44;;;;;;;16.70;7.60;;;;;10.20;96017.20;;;;110947;1250;41179;-63
2022/03/31 06:28:14;;;;;;;18.00;7.10;;;;;10.30;96017.20;;;;111096;1248;41151;-62
2022/03/31 06:30:43;;;;;;;19.70;7.70;;;;;10.50;96012.20;;;;111049;1250;42864;-64
2022/03/31 06:33:17;;;;;;;16.90;7.10;;;;;10.64;96013.40;;;;111111;1248;41132;-65
2022/03/31 06:35:49;;;;;;;13.60;6.70;;;;;10.80;96014.00;;;;111226;1248;41398;-65
2022/03/31 06:38:18;;;;;;;15.00;7.10;;;;;10.98;96014.60;;;;111041;1248;41141;-66
2022/03/31 06:41:06;;;;;;;23.70;7.90;;;;;11.10;96018.80;;;;111049;1248;41115;-65
2022/03/31 06:43:37;;;;;;;18.60;7.10;;;;;11.30;96012.00;;;;111097;1248;41134;-65
2022/03/31 06:46:07;;;;;;;19.70;7.60;;;;;11.40;96009.40;;;;111104;1248;41145;-64
2022/03/31 06:48:37;;;;;;;13.90;6.90;;;;;11.50;96007.20;;;;111094;1248;41163;-65
2022/03/31 06:51:08;;;;;;;18.40;8.30;;;;;11.68;96005.20;;;;111131;1248;41611;-66
2022/03/31 06:53:39;;;;;;;21.10;8.50;;;;;11.80;96005.60;;;;110998;1248;41725;-63
2022/03/31 06:56:09;;;;;;;16.10;7.50;;;;;11.88;96001.00;;;;111050;1247;41402;-65
2022/03/31 06:58:39;;;;;;;15.50;7.00;;;;;11.98;96011.20;;;;111103;1248;41458;-64
2022/03/31 07:01:08;;;;;;;16.90;7.00;;;;;12.10;96007.00;;;;111048;1248;42302;-65
2022/03/31 07:03:37;;;;;;;18.20;6.80;;;;;12.20;96006.40;;;;111061;1248;41138;-67
2022/03/31 07:06:07;;;;;;;15.90;5.80;;;;;12.30;96001.00;;;;111045;1247;41257;-62
2022/03/31 07:08:37;;;;;;;17.70;5.80;;;;;12.40;96003.20;;;;111030;1248;41821;-64
2022/03/31 07:11:07;;;;;;;13.40;5.40;;;;;12.54;96006.40;;;;111117;1247;41256;-63
2022/03/31 07:13:37;;;;;;;19.50;7.90;;;;;12.70;96006.20;;;;111148;1247;41161;-63
2022/03/31 07:16:06;;;;;;;22.00;6.80;;;;;12.78;95998.40;;;;111177;1246;41239;-62
2022/03/31 07:18:36;;;;;;;15.00;6.20;;;;;12.84;96003.20;;;;111120;1247;42428;-62
2022/03/31 07:21:05;;;;;;;15.60;6.80;;;;;12.94;95999.20;;;;111112;1249;42034;-64
2022/03/31 07:23:35;;;;;;;14.50;5.60;;;;;13.10;95993.00;;;;111073;1248;41161;-63
2022/03/31 07:26:06;;;;;;;13.70;5.60;;;;;13.20;95996.00;;;;111077;1247;41158;-63
2022/03/31 07:28:35;;;;;;;14.30;5.30;;;;;13.30;95993.80;;;;110851;1247;41622;-63
2022/03/31 07:31:04;;;;;;;16.70;5.60;;;;;13.40;95989.20;;;;111137;1247;41177;-62
2022/03/31 07:33:34;;;;;;;10.60;5.30;;;;;13.56;95989.60;;;;110370;1248;836279;-63
2022/03/31 07:36:04;;;;;;;14.80;6.60;;;;;13.70;95988.60;;;;111045;1248;41722;-63
2022/03/31 07:38:33;;;;;;;16.00;6.30;;;;;13.80;95991.40;;;;111050;1247;41145;-64
2022/03/31 07:41:03;;;;;;;17.20;7.00;;;;;13.90;95987.20;;;;111013;1249;41285;-64
2022/03/31 07:43:33;;;;;;;20.10;7.50;;;;;13.90;95986.40;;;;111021;1247;42206;-64
2022/03/31 07:46:02;;;;;;;21.30;7.00;;;;;14.00;95990.20;;;;111068;1247;41147;-62
2022/03/31 07:48:32;;;;;;;16.70;7.70;;;;;14.10;95993.20;;;;111108;1246;41660;-64
2022/03/31 07:51:01;;;;;;;19.00;8.70;;;;;14.10;95998.00;;;;111047;1248;41382;-64
2022/03/31 07:53:33;;;;;;;17.60;7.40;;;;;14.10;96004.00;;;;111159;1247;41163;-66
2022/03/31 07:56:03;;;;;;;15.40;6.40;;;;;14.10;95994.80;;;;111101;1246;42009;-65
2022/03/31 07:58:32;;;;;;;15.90;6.50;;;;;14.20;95989.60;;;;111110;1247;41258;-66
2022/03/31 08:01:02;;;;;;;14.80;5.70;;;;;14.30;95989.20;;;;111125;1247;41725;-65
2022/03/31 08:03:31;;;;;;;16.00;6.40;;;;;14.44;95994.80;;;;111107;1248;41138;-66
2022/03/31 08:06:00;;;;;;;22.60;7.60;;;;;14.58;95991.00;;;;111066;1247;41143;-66
2022/03/31 08:08:29;;;;;;;16.10;6.60;;;;;14.60;95995.80;;;;111093;1248;41804;-66
2022/03/31 08:10:59;;;;;;;15.10;6.10;;;;;14.66;95997.60;;;;111001;1248;41726;-64
2022/03/31 08:13:29;;;;;;;14.90;5.60;;;;;14.70;95989.80;;;;111126;1248;41414;-66
2022/03/31 08:16:02;;;;;;;15.50;6.40;;;;;14.82;95984.60;;;;111086;1248;41662;-66
2022/03/31 08:18:37;;;;;;;20.60;6.90;;;;;15.00;95981.80;;;;111077;1247;41122;-63
2022/03/31 08:21:07;;;;;;;18.10;6.60;;;;;15.10;95973.60;;;;111127;1248;41157;-66
2022/03/31 08:23:36;;;;;;;16.50;6.70;;;;;15.28;95964.40;;;;110956;1247;41163;-65
2022/03/31 08:26:06;;;;;;;22.00;6.50;;;;;15.50;95954.60;;;;111133;1247;41210;-64
2022/03/31 08:28:36;;;;;;;16.80;6.90;;;;;15.60;95958.00;;;;111070;1247;41869;-64
2022/03/31 08:31:06;;;;;;;19.70;6.00;;;;;15.70;95963.00;;;;111031;1250;42048;-66
2022/03/31 08:33:35;;;;;;;18.10;6.80;;;;;15.70;95971.60;;;;111105;1247;41576;-66
2022/03/31 08:36:04;;;;;;;22.00;6.60;;;;;15.76;95969.60;;;;111147;1247;41188;-66
2022/03/31 08:38:34;;;;;;;15.50;6.30;;;;;15.80;95974.20;;;;110998;1247;41171;-64
2022/03/31 08:41:03;;;;;;;19.00;6.80;;;;;15.80;95970.00;;;;111082;1247;41937;-64
2022/03/31 08:43:32;;;;;;;17.10;7.10;;;;;15.86;95967.20;;;;111017;1248;41150;-64
2022/03/31 08:46:09;;;;;;;17.00;7.50;;;;;16.00;95966.80;;;;111115;1247;41634;-65
2022/03/31 08:48:38;;;;;;;18.90;6.60;;;;;16.10;95966.00;;;;111060;1247;41824;-64
2022/03/31 08:51:08;;;;;;;17.70;6.60;;;;;16.20;95955.80;;;;111119;1247;41774;-65
2022/03/31 08:53:37;;;;;;;19.90;7.40;;;;;16.28;95955.80;;;;110665;1250;41139;-66
2022/03/31 08:56:09;;;;;;;21.10;7.10;;;;;16.30;95958.00;;;;111041;1247;41185;-63
2022/03/31 08:58:38;;;;;;;19.10;6.50;;;;;16.32;95955.00;;;;110737;1248;41178;-64
2022/03/31 09:01:08;;;;;;;23.60;6.70;;;;;16.40;95956.80;;;;111076;1247;41145;-63
2022/03/31 09:03:38;;;;;;;14.70;6.30;;;;;16.52;95957.40;;;;111029;1248;41608;-64
2022/03/31 09:06:09;;;;;;;20.30;6.70;;;;;16.60;95958.20;;;;111122;1247;41159;-63
2022/03/31 09:08:38;;;;;;;21.20;7.10;;;;;16.70;95949.80;;;;111131;1247;41140;-64
2022/03/31 09:11:08;;;;;;;14.10;6.30;;;;;16.70;95941.00;;;;111048;1247;41127;-64
2022/03/31 09:13:40;;;;;;;22.90;6.60;;;;;16.80;95935.60;;;;111080;1248;41622;-64
2022/03/31 09:16:11;;;;;;;18.00;6.80;;;;;16.90;95941.40;;;;111173;1248;42333;-66
2022/03/31 09:18:40;;;;;;;;;;;;;17.00;95950.00;;;;111101;1247;41883;-64
2022/03/31 09:21:11;;;;;;;21.30;6.80;;;;;17.10;95949.00;;;;111207;1247;41251;-63
2022/03/31 09:23:46;;;;;;;20.90;7.30;;;;;17.16;95945.60;;;;110814;1247;41792;-64
2022/03/31 09:26:17;;;;;;;18.80;7.10;;;;;17.20;95947.20;;;;110830;1248;41497;-64
2022/03/31 09:28:47;;;;;;;19.40;6.30;;;;;17.20;95946.00;;;;111112;1247;41276;-64
2022/03/31 09:31:27;;;;;;;15.80;6.40;;;;;17.20;95938.00;;;;110999;1249;41123;-64
2022/03/31 09:33:58;;;;;;;21.30;6.40;;;;;17.10;95940.60;;;;111124;1247;41829;-62
2022/03/31 09:36:27;;;;;;;14.90;6.10;;;;;17.00;95959.60;;;;111106;1247;41253;-63
2022/03/31 09:39:02;;;;;;;18.80;6.60;;;;;16.92;95955.20;;;;111111;1248;41195;-64
2022/03/31 09:41:33;;;;;;;17.80;5.60;;;;;16.90;95953.20;;;;111107;1248;41676;-64
2022/03/31 09:44:07;;;;;;;19.10;6.30;;;;;16.90;95948.80;;;;111153;1247;42319;-64
2022/03/31 09:46:38;;;;;;;16.40;6.10;;;;;16.90;95948.80;;;;110847;1247;41750;-64
2022/03/31 09:49:19;;;;;;;21.00;6.70;;;;;16.88;95938.60;;;;111030;1247;41201;-64
2022/03/31 09:51:59;;;;;;;15.70;5.10;;;;;16.90;95944.60;;;;111133;1247;41123;-65
2022/03/31 09:54:30;;;;;;;15.70;5.60;;;;;16.86;95931.40;;;;111075;1248;42084;-65
2022/03/31 09:57:02;;;;;;;18.60;6.20;;;;;16.90;95923.20;;;;111108;1247;41154;-64
2022/03/31 09:59:34;;;;;;;16.10;5.90;;;;;16.90;95917.80;;;;111128;1248;41889;-63
2022/03/31 10:02:04;;;;;;;13.10;5.50;;;;;16.94;95909.00;;;;111049;1248;42471;-62
2022/03/31 10:04:34;;;;;;;18.30;6.10;;;;;17.00;95922.60;;;;111055;1248;42057;-64
2022/03/31 10:07:04;;;;;;;16.10;6.20;;;;;17.02;95907.40;;;;111034;1248;41270;-65
2022/03/31 10:09:36;;;;;;;14.20;5.70;;;;;17.10;95904.20;;;;111006;1248;41152;-64
2022/03/31 10:12:11;;;;;;;17.30;6.60;;;;;17.10;95900.00;;;;111088;1248;41317;-65
2022/03/31 10:14:43;;;;;;;18.80;6.00;;;;;17.20;95902.80;;;;111041;1248;41642;-65
2022/03/31 10:17:13;;;;;;;19.60;6.20;;;;;17.20;95889.00;;;;111125;1247;41893;-64
2022/03/31 10:19:47;;;;;;;17.10;6.30;;;;;17.22;95885.60;;;;110920;1247;41153;-66
2022/03/31 10:25:14;;;;;;;16.60;6.50;;;;;17.40;95871.00;;;;111061;1249;41196;-65
2022/03/31 10:27:45;;;;;;;18.40;6.00;;;;;17.60;95869.80;;;;111070;1247;41701;-65
2022/03/31 10:30:20;;;;;;;21.20;7.20;;;;;17.80;95876.60;;;;111155;1247;41148;-64
2022/03/31 10:33:08;;;;;;;19.40;6.90;;;;;18.00;95862.00;;;;111030;1247;41267;-64
2022/03/31 10:35:40;;;;;;;18.30;6.40;;;;;18.30;95860.60;;;;110961;1248;41260;-64
2022/03/31 10:38:18;;;;;;;15.70;6.10;;;;;18.40;95856.00;;;;111088;1248;41154;-63
2022/03/31 10:40:52;;;;;;;20.40;6.40;;;;;18.40;95861.80;;;;111039;1248;41150;-64
2022/03/31 10:43:30;;;;;;;13.70;5.50;;;;;18.40;95862.60;;;;111002;1248;41524;-64
2022/03/31 10:46:03;;;;;;;18.60;6.40;;;;;18.30;95852.60;;;;111096;1248;42387;-64
2022/03/31 10:48:36;;;;;;;19.10;6.40;;;;;18.20;95849.00;;;;111014;1247;41121;-64
2022/03/31 10:51:08;;;;;;;15.70;5.60;;;;;18.10;95845.80;;;;111115;1247;42399;-64
2022/03/31 10:53:48;;;;;;;18.10;6.00;;;;;18.00;95837.80;;;;111133;1248;41186;-66
2022/03/31 10:56:19;;;;;;;22.20;5.70;;;;;17.90;95845.00;;;;111075;1247;41152;-65
2022/03/31 10:58:49;;;;;;;15.00;5.70;;;;;17.90;95837.60;;;;111030;1248;41138;-65
2022/03/31 11:01:20;;;;;;;18.90;5.80;;;;;17.90;95839.40;;;;111013;1247;41354;-64
2022/03/31 11:03:50;;;;;;;15.40;5.70;;;;;17.90;95828.00;;;;111143;1247;41143;-63
2022/03/31 11:06:20;;;;;;;17.00;5.70;;;;;18.00;95818.80;;;;111099;1247;41491;-64
2022/03/31 11:08:50;;;;;;;15.90;5.50;;;;;18.08;95818.20;;;;111146;1247;42442;-64
2022/03/31 11:11:21;;;;;;;13.30;5.10;;;;;18.10;95807.80;;;;111055;1248;41259;-63
2022/03/31 11:13:51;;;;;;;17.80;5.60;;;;;18.10;95808.20;;;;111135;1247;41302;-61
2022/03/31 11:16:22;;;;;;;14.10;5.40;;;;;18.10;95804.80;;;;111107;1247;41683;-62
2022/03/31 11:18:59;;;;;;;16.50;5.20;;;;;18.00;95798.80;;;;111082;1248;41248;-64
2022/03/31 11:21:36;;;;;;;13.60;4.80;;;;;18.06;95790.20;;;;111059;1247;41623;-65
2022/03/31 11:24:06;;;;;;;19.90;5.40;;;;;18.10;95788.20;;;;111085;1247;41753;-64
2022/03/31 11:26:41;;;;;;;14.60;4.70;;;;;18.10;95781.40;;;;110929;1249;41246;-64
2022/03/31 11:29:17;;;;;;;21.40;5.00;;;;;18.10;95774.80;;;;111125;1247;41256;-64
2022/03/31 11:31:53;;;;;;;16.40;4.70;;;;;18.12;95773.60;;;;111062;1248;41114;-65
2022/03/31 11:34:27;;;;;;;16.40;4.90;;;;;18.20;95771.80;;;;110868;1247;41585;-64
2022/03/31 11:37:00;;;;;;;14.30;4.60;;;;;18.30;95774.00;;;;111097;1248;41514;-65
2022/03/31 11:39:30;;;;;;;15.70;4.80;;;;;18.38;95764.60;;;;111045;1248;41154;-65
2022/03/31 11:42:10;;;;;;;14.20;4.80;;;;;18.56;95755.80;;;;111077;1248;42156;-65
2022/03/31 11:44:41;;;;;;;18.00;5.50;;;;;18.70;95758.00;;;;111014;1248;41395;-65
2022/03/31 11:47:12;;;;;;;14.20;5.40;;;;;18.70;95770.80;;;;110969;1250;41846;-66
2022/03/31 11:49:43;;;;;;;13.40;4.60;;;;;18.64;95758.00;;;;111052;1248;41246;-65
2022/03/31 11:52:12;;;;;;;15.30;5.30;;;;;18.60;95757.00;;;;111114;1247;41186;-65
2022/03/31 11:54:41;;;;;;;13.30;5.20;;;;;18.60;95756.80;;;;111083;1247;41504;-66
2022/03/31 11:57:13;;;;;;;22.10;6.10;;;;;18.60;95747.60;;;;111081;1247;42238;-65
2022/03/31 11:59:42;;;;;;;19.10;5.30;;;;;18.60;95755.60;;;;110871;1248;42007;-64
2022/03/31 12:02:16;;;;;;;13.90;5.00;;;;;18.60;95749.20;;;;111018;1245;41228;-65
2022/03/31 12:04:47;;;;;;;18.40;5.30;;;;;18.74;95746.60;;;;110998;1249;41582;-65
2022/03/31 12:07:19;;;;;;;12.10;5.30;;;;;18.90;95739.00;;;;111099;1247;42286;-65
2022/03/31 12:09:48;;;;;;;13.60;4.90;;;;;19.02;95735.00;;;;110888;1250;41613;-65
2022/03/31 12:12:18;;;;;;;15.70;5.20;;;;;19.20;95726.00;;;;111062;1247;41739;-66
2022/03/31 12:14:56;;;;;;;22.10;4.90;;;;;19.40;95718.00;;;;111069;1248;42389;-65
2022/03/31 12:17:25;;;;;;;18.10;6.00;;;;;19.70;95719.60;;;;111140;1247;41616;-65
2022/03/31 12:19:54;;;;;;;15.80;5.20;;;;;19.80;95706.20;;;;111051;1247;41527;-62
2022/03/31 12:22:34;;;;;;;14.80;4.60;;;;;19.80;95704.00;;;;110865;1249;41728;-66
2022/03/31 12:25:03;;;;;;;15.10;4.70;;;;;19.70;95702.00;;;;111041;1248;41449;-66
2022/03/31 12:27:33;;;;;;;14.40;4.90;;;;;19.60;95699.60;;;;110897;1249;41135;-64
2022/03/31 12:30:04;;;;;;;12.00;5.00;;;;;19.50;95710.00;;;;111140;1247;41145;-64